KDDH

Details ICAO KDDH
Name WILLIAM H MORSE STATE
Region United States
Timezone America/New_York (UTC-4.0)
Plans Departing 3
Arriving 4
Stats Elevation 827 ft / 252 m (AMSL)
Location 42.891329° -73.246398°
Runways 1
Magnetic Variation 13.798° W
Sunrise 2018-05-20 09:26:42 UTC / 2018-05-20 05:26:42 Local
Sunset 2018-05-21 00:15:11 UTC / 2018-05-20 20:15:11 Local
Advertisement - Login to hide

Runways

ID Width Length Bearing (true) Bearing (mag) Surface Threshold Offset Overrun Length
13 75 ft / 23 m 3,698 ft / 1,127 m 118.46° 132.26° Asphalt 0 ft / 0 m 0 ft / 0 m
31 75 ft / 23 m 3,698 ft / 1,127 m 298.47° 312.27° Asphalt 0 ft / 0 m 0 ft / 0 m

Map

Weather


0- 5 10 15 20 25 30 35+ Temperature / ° C

Clouds and Precipitation
Forecast for 2018-05-20 18:00 UTC. Updated 43 minutes ago

Ground ~20,000 ft ~40,000 ft Winds

METAR

KDDH 201554Z AUTO VRB03KT 10SM FEW014 OVC022 19/17 A2989 RMK AO2 RAE40 SLP118 P0006 T01940172

TAF

Not found

Frequencies

Recorded 135.92 MHz ASOS
Approach 125.00 MHz ALBANY APP/DEP
Unicom 122.80 MHz CTAF/UNICOM
Warning: Do not use this data for real-world aviation or navigation. No guarantee of current accuracy is given.